createdAt,value
2017-08-31T00:00:36.652Z,0
2017-08-31T00:01:36.630Z,0
2017-08-31T00:02:36.321Z,0
2017-08-31T00:03:36.626Z,0
2017-08-31T00:04:36.008Z,0
2017-08-31T00:05:36.313Z,0
2017-08-31T00:06:36.287Z,0
2017-08-31T00:07:36.283Z,0
2017-08-31T00:08:36.280Z,0
2017-08-31T00:09:36.278Z,0
2017-08-31T00:10:36.254Z,0
2017-08-31T00:11:36.251Z,0
2017-08-31T00:12:35.933Z,0
2017-08-31T00:13:36.238Z,0
2017-08-31T00:14:36.237Z,0
2017-08-31T00:15:36.222Z,0
2017-08-31T00:16:36.212Z,0
2017-08-31T00:17:36.221Z,0
2017-08-31T00:18:35.895Z,0
2017-08-31T00:19:35.890Z,0
2017-08-31T00:20:35.872Z,0
2017-08-31T00:21:36.189Z,0
2017-08-31T00:22:35.862Z,0
2017-08-31T00:23:35.865Z,0
2017-08-31T00:24:36.477Z,0
2017-08-31T00:25:36.463Z,0
2017-08-31T00:26:36.456Z,0
2017-08-31T00:27:36.457Z,0
2017-08-31T00:28:35.821Z,0
2017-08-31T00:29:36.115Z,0
2017-08-31T00:30:36.441Z,0
2017-08-31T00:31:36.411Z,0
2017-08-31T00:32:36.410Z,0
2017-08-31T00:33:36.416Z,0
2017-08-31T00:34:36.386Z,0
2017-08-31T00:35:36.089Z,0
2017-08-31T00:36:36.378Z,0
2017-08-31T00:37:36.372Z,0
2017-08-31T00:38:36.377Z,0
2017-08-31T00:39:36.060Z,0
2017-08-31T00:40:36.043Z,0
2017-08-31T00:41:36.379Z,0
2017-08-31T00:42:36.034Z,0
2017-08-31T00:43:36.024Z,0
2017-08-31T00:44:36.021Z,0
2017-08-31T00:45:36.317Z,0
2017-08-31T00:46:36.008Z,0
2017-08-31T00:47:35.994Z,0
2017-08-31T00:48:35.681Z,0
2017-08-31T00:49:35.678Z,0
2017-08-31T00:50:36.304Z,0
2017-08-31T00:51:35.968Z,0
2017-08-31T00:52:35.972Z,0
2017-08-31T00:53:35.944Z,0
2017-08-31T00:54:36.258Z,0
2017-08-31T00:55:36.250Z,0
2017-08-31T00:56:35.936Z,0
2017-08-31T00:57:36.250Z,0
2017-08-31T00:58:36.236Z,0
2017-08-31T00:59:35.912Z,0
2017-08-31T01:00:35.906Z,0
2017-08-31T01:01:35.894Z,0
2017-08-31T01:02:35.899Z,0
2017-08-31T01:03:36.210Z,0
2017-08-31T01:04:35.880Z,0
2017-08-31T01:05:35.908Z,0
2017-08-31T01:06:35.869Z,0
2017-08-31T01:07:35.853Z,0
2017-08-31T01:08:36.156Z,0
2017-08-31T01:09:35.837Z,0
2017-08-31T01:10:35.829Z,0
2017-08-31T01:11:35.832Z,0
2017-08-31T01:12:35.814Z,0
2017-08-31T01:13:35.806Z,0
2017-08-31T01:14:35.808Z,0
2017-08-31T01:15:35.798Z,0
2017-08-31T01:16:35.792Z,0
2017-08-31T01:17:35.477Z,0
2017-08-31T01:18:36.088Z,0
2017-08-31T01:19:36.086Z,0
2017-08-31T01:20:35.748Z,0
2017-08-31T01:21:36.059Z,0
2017-08-31T01:22:36.055Z,0
2017-08-31T01:23:36.068Z,0
2017-08-31T01:24:36.045Z,0
2017-08-31T01:25:36.028Z,0
2017-08-31T01:26:35.723Z,0
2017-08-31T01:27:36.021Z,0
2017-08-31T01:28:36.017Z,0
2017-08-31T01:29:36.006Z,0
2017-08-31T01:30:35.988Z,0
2017-08-31T01:31:35.673Z,0
2017-08-31T01:32:35.666Z,0
2017-08-31T01:33:35.650Z,0
2017-08-31T01:34:35.971Z,0
2017-08-31T01:35:35.958Z,0
2017-08-31T01:36:35.957Z,0
2017-08-31T01:37:35.940Z,0
2017-08-31T01:38:35.926Z,0
2017-08-31T01:39:35.916Z,0
2017-08-31T01:40:35.925Z,0
2017-08-31T01:41:35.607Z,0
2017-08-31T01:42:35.904Z,0
2017-08-31T01:43:35.944Z,0
2017-08-31T01:44:35.905Z,0
2017-08-31T01:45:35.886Z,0
2017-08-31T01:46:35.891Z,0
2017-08-31T01:47:35.865Z,0
2017-08-31T01:48:35.874Z,0
2017-08-31T01:49:35.884Z,0
2017-08-31T01:50:35.855Z,0
2017-08-31T01:51:35.536Z,0
2017-08-31T01:52:35.831Z,0
2017-08-31T01:53:35.524Z,0
2017-08-31T01:54:35.820Z,0
2017-08-31T01:55:35.824Z,0
2017-08-31T01:56:35.809Z,0
2017-08-31T01:57:35.810Z,0
2017-08-31T01:58:35.794Z,0
2017-08-31T01:59:35.796Z,0
2017-08-31T02:00:35.767Z,0
2017-08-31T02:01:35.781Z,0
2017-08-31T02:02:35.769Z,0
2017-08-31T02:03:35.754Z,0
2017-08-31T02:04:35.757Z,0
2017-08-31T02:05:35.748Z,0
2017-08-31T02:06:35.727Z,0
2017-08-31T02:07:35.734Z,0
2017-08-31T02:08:35.730Z,0
2017-08-31T02:09:35.710Z,0
2017-08-31T02:10:35.398Z,0
2017-08-31T02:11:35.384Z,0
2017-08-31T02:12:35.382Z,0
2017-08-31T02:13:35.680Z,0
2017-08-31T02:14:35.681Z,0
2017-08-31T02:15:35.681Z,0
2017-08-31T02:16:35.671Z,0
2017-08-31T02:17:35.641Z,0
2017-08-31T02:18:35.348Z,0
2017-08-31T02:19:35.643Z,0
2017-08-31T02:20:35.642Z,0
2017-08-31T02:21:35.633Z,0
2017-08-31T02:22:35.296Z,0
2017-08-31T02:23:35.302Z,0
2017-08-31T02:24:35.304Z,0
2017-08-31T02:25:35.601Z,0
2017-08-31T02:26:35.594Z,0
2017-08-31T02:27:35.589Z,0
2017-08-31T02:28:35.585Z,0
2017-08-31T02:29:35.570Z,0
2017-08-31T02:30:35.547Z,0
2017-08-31T02:31:35.548Z,0
2017-08-31T02:32:35.550Z,0
2017-08-31T02:33:35.538Z,0
2017-08-31T02:34:35.536Z,0
2017-08-31T02:35:35.534Z,0
2017-08-31T02:36:35.510Z,0
2017-08-31T02:37:35.512Z,0
2017-08-31T02:38:35.507Z,0
2017-08-31T02:39:35.495Z,0
2017-08-31T02:40:35.478Z,0
2017-08-31T02:41:35.478Z,0
2017-08-31T02:42:35.476Z,0
2017-08-31T02:43:35.467Z,0
2017-08-31T02:44:35.462Z,0
2017-08-31T02:45:35.470Z,0
2017-08-31T02:46:35.447Z,0
2017-08-31T02:47:35.444Z,0
2017-08-31T02:48:35.439Z,0
2017-08-31T02:49:35.416Z,0
2017-08-31T02:50:35.411Z,0
2017-08-31T02:51:35.403Z,0
2017-08-31T02:52:34.776Z,0
2017-08-31T02:53:35.068Z,0
2017-08-31T02:54:34.770Z,0
2017-08-31T02:55:35.370Z,0
2017-08-31T02:56:35.377Z,0
2017-08-31T02:57:35.355Z,0
2017-08-31T02:58:35.349Z,0
2017-08-31T02:59:35.334Z,0
2017-08-31T03:00:35.341Z,0
2017-08-31T03:01:35.335Z,0
2017-08-31T03:02:35.318Z,0
2017-08-31T03:03:35.010Z,0
2017-08-31T03:04:35.313Z,0
2017-08-31T03:05:35.002Z,0
2017-08-31T03:06:34.988Z,0
2017-08-31T03:07:35.282Z,0
2017-08-31T03:08:35.275Z,0
2017-08-31T03:09:35.283Z,0
2017-08-31T03:10:35.274Z,0
2017-08-31T03:11:34.945Z,0
2017-08-31T03:12:35.244Z,0
2017-08-31T03:13:34.930Z,0
2017-08-31T03:14:35.247Z,0
2017-08-31T03:15:35.247Z,0
2017-08-31T03:16:35.234Z,0
2017-08-31T03:17:34.903Z,0
2017-08-31T03:18:35.194Z,0
2017-08-31T03:19:35.188Z,0
2017-08-31T03:20:35.198Z,0
2017-08-31T03:21:34.896Z,0
2017-08-31T03:22:35.186Z,0
2017-08-31T03:23:34.856Z,0
2017-08-31T03:24:34.859Z,0
2017-08-31T03:25:34.841Z,0
2017-08-31T03:26:34.840Z,0
2017-08-31T03:27:34.831Z,0
2017-08-31T03:28:34.825Z,0
2017-08-31T03:29:35.130Z,0
2017-08-31T03:30:34.825Z,0
2017-08-31T03:31:34.814Z,0
2017-08-31T03:32:34.798Z,0
2017-08-31T03:33:34.793Z,0
2017-08-31T03:34:34.468Z,0
2017-08-31T03:35:34.772Z,0
2017-08-31T03:36:34.763Z,0
2017-08-31T03:37:34.770Z,0
2017-08-31T03:38:35.076Z,0
2017-08-31T03:39:34.780Z,0
2017-08-31T03:40:34.739Z,0
2017-08-31T03:41:34.737Z,0
2017-08-31T03:42:34.744Z,0
2017-08-31T03:43:34.729Z,0
2017-08-31T03:44:34.710Z,0
2017-08-31T03:45:35.012Z,0
2017-08-31T03:46:35.016Z,0
2017-08-31T03:47:35.005Z,0
2017-08-31T03:48:34.988Z,0
2017-08-31T03:49:34.363Z,0
2017-08-31T03:50:34.977Z,0
2017-08-31T03:51:34.977Z,0
2017-08-31T03:52:34.948Z,0
2017-08-31T03:53:34.949Z,0
2017-08-31T03:54:34.945Z,0
2017-08-31T03:55:34.944Z,4
2017-08-31T03:56:34.936Z,0
2017-08-31T03:57:34.920Z,0
2017-08-31T03:58:34.917Z,4
2017-08-31T03:59:34.917Z,0
2017-08-31T04:00:34.909Z,4
2017-08-31T04:01:34.879Z,0
2017-08-31T04:02:34.890Z,4
2017-08-31T04:03:34.896Z,4
2017-08-31T04:04:34.882Z,8
2017-08-31T04:05:34.863Z,4
2017-08-31T04:06:34.849Z,12
2017-08-31T04:07:34.857Z,8
2017-08-31T04:08:34.843Z,16
2017-08-31T04:09:34.832Z,16
2017-08-31T04:10:34.515Z,20
2017-08-31T04:11:34.861Z,28
2017-08-31T04:12:34.812Z,32
2017-08-31T04:13:34.797Z,40
2017-08-31T04:14:34.496Z,48
2017-08-31T04:15:34.791Z,60
2017-08-31T04:16:34.469Z,72
2017-08-31T04:17:34.771Z,88
2017-08-31T04:18:34.762Z,104
2017-08-31T04:19:34.771Z,116
2017-08-31T04:20:34.443Z,140
2017-08-31T04:21:34.745Z,160
2017-08-31T04:22:34.430Z,184
2017-08-31T04:23:34.740Z,208
2017-08-31T04:24:34.419Z,224
2017-08-31T04:25:34.726Z,244
2017-08-31T04:26:34.697Z,256
2017-08-31T04:27:34.708Z,272
2017-08-31T04:28:34.692Z,284
2017-08-31T04:29:34.375Z,296
2017-08-31T04:30:34.377Z,316
2017-08-31T04:31:34.659Z,344
2017-08-31T04:32:34.662Z,384
2017-08-31T04:33:34.336Z,424
2017-08-31T04:34:34.330Z,468
2017-08-31T04:35:34.024Z,512
2017-08-31T04:36:34.626Z,568
2017-08-31T04:37:34.612Z,632
2017-08-31T04:38:34.598Z,704
2017-08-31T04:39:34.306Z,780
2017-08-31T04:40:34.590Z,856
2017-08-31T04:41:34.583Z,936
2017-08-31T04:42:34.591Z,1020
2017-08-31T04:43:34.568Z,1108
2017-08-31T04:44:34.564Z,1208
2017-08-31T04:45:34.558Z,1324
2017-08-31T04:46:34.556Z,1440
2017-08-31T04:47:34.545Z,1568
2017-08-31T04:48:34.533Z,1696
2017-08-31T04:49:34.217Z,1816
2017-08-31T04:50:34.518Z,1944
2017-08-31T04:51:34.508Z,2068
2017-08-31T04:52:34.505Z,2188
2017-08-31T04:53:34.483Z,2316
2017-08-31T04:54:34.484Z,2460
2017-08-31T04:55:34.479Z,2612
2017-08-31T04:56:34.472Z,2760
2017-08-31T04:57:34.457Z,2916
2017-08-31T04:58:34.452Z,3068
2017-08-31T04:59:34.438Z,3220
2017-08-31T05:00:34.440Z,3376
2017-08-31T05:01:34.111Z,3544
2017-08-31T05:02:34.415Z,3728
2017-08-31T05:03:34.410Z,3908
2017-08-31T05:04:34.090Z,4132
2017-08-31T05:05:34.099Z,4500
2017-08-31T05:06:34.389Z,4896
2017-08-31T05:07:34.380Z,5116
2017-08-31T05:08:34.402Z,5312
2017-08-31T05:09:34.050Z,5616
2017-08-31T05:10:34.053Z,5940
2017-08-31T05:11:34.058Z,6240
2017-08-31T05:12:34.037Z,6588
2017-08-31T05:13:34.023Z,6792
2017-08-31T05:14:34.350Z,7024
2017-08-31T05:15:34.031Z,7004
2017-08-31T05:16:34.322Z,7004
2017-08-31T05:17:33.997Z,6988
2017-08-31T05:18:33.994Z,7228
2017-08-31T05:19:33.977Z,7500
2017-08-31T05:20:33.974Z,7956
2017-08-31T05:21:33.956Z,8100
2017-08-31T05:22:33.952Z,8824
2017-08-31T05:23:33.952Z,9456
2017-08-31T05:24:34.257Z,9796
2017-08-31T05:25:33.939Z,10752
2017-08-31T05:26:33.926Z,11316
2017-08-31T05:27:33.918Z,12188
2017-08-31T05:28:34.431Z,13076
2017-08-31T05:29:33.916Z,12936
2017-08-31T05:30:33.900Z,12960
2017-08-31T05:31:33.881Z,13372
2017-08-31T05:32:33.874Z,14012
2017-08-31T05:33:33.864Z,15072
2017-08-31T05:34:33.873Z,15328
2017-08-31T05:35:34.185Z,15552
2017-08-31T05:36:33.849Z,14040
2017-08-31T05:37:33.834Z,14128
2017-08-31T05:38:34.155Z,16672
2017-08-31T05:39:33.844Z,17280
2017-08-31T05:40:33.513Z,17728
2017-08-31T05:41:34.126Z,16800
2017-08-31T05:42:33.815Z,17472
2017-08-31T05:43:33.798Z,18144
2017-08-31T05:44:33.483Z,17952
2017-08-31T05:45:33.797Z,16416
2017-08-31T05:46:33.469Z,15276
2017-08-31T05:47:34.091Z,16576
2017-08-31T05:48:33.763Z,17120
2017-08-31T05:49:34.077Z,17088
2017-08-31T05:50:34.058Z,15640
2017-08-31T05:51:34.049Z,15080
2017-08-31T05:52:33.739Z,14604
2017-08-31T05:53:34.053Z,15132
2017-08-31T05:54:33.722Z,15844
2017-08-31T05:55:33.935Z,17536
2017-08-31T05:56:34.026Z,16056
2017-08-31T05:57:34.025Z,16800
2017-08-31T05:58:34.015Z,16672
2017-08-31T05:59:33.903Z,17376
2017-08-31T06:00:34.188Z,17664
2017-08-31T06:01:33.978Z,18976
2017-08-31T06:02:33.985Z,20064
2017-08-31T06:03:33.975Z,22112
2017-08-31T06:04:33.984Z,21888
2017-08-31T06:05:33.640Z,23456
2017-08-31T06:06:34.165Z,25504
2017-08-31T06:07:33.672Z,27072
2017-08-31T06:08:33.948Z,26688
2017-08-31T06:09:33.943Z,26848
2017-08-31T06:10:33.301Z,27840
2017-08-31T06:11:33.935Z,26528
2017-08-31T06:12:33.592Z,24512
2017-08-31T06:13:33.924Z,24448
2017-08-31T06:14:33.592Z,24288
2017-08-31T06:15:33.577Z,24608
2017-08-31T06:16:33.591Z,22720
2017-08-31T06:17:33.882Z,22016
2017-08-31T06:18:33.560Z,20768
2017-08-31T06:19:33.544Z,19200
2017-08-31T06:20:33.559Z,18688
2017-08-31T06:21:33.543Z,18304
2017-08-31T06:22:33.893Z,18976
2017-08-31T06:23:33.835Z,18432
2017-08-31T06:24:33.530Z,18464
2017-08-31T06:25:33.206Z,18016
2017-08-31T06:26:33.848Z,17824
2017-08-31T06:27:33.812Z,17472
2017-08-31T06:28:33.797Z,17536
2017-08-31T06:29:33.802Z,17600
2017-08-31T06:30:33.796Z,17024
2017-08-31T06:31:33.784Z,16712
2017-08-31T06:32:33.782Z,17088
2017-08-31T06:33:33.778Z,17312
2017-08-31T06:34:33.668Z,17536
2017-08-31T06:35:33.657Z,17600
2017-08-31T06:36:33.760Z,17600
2017-08-31T06:37:33.744Z,17440
2017-08-31T06:38:33.740Z,17472
2017-08-31T06:39:48.330Z,17728
2017-08-31T06:40:33.940Z,17952
2017-08-31T06:41:33.741Z,18144
2017-08-31T06:42:33.711Z,18752
2017-08-31T06:43:33.699Z,19200
2017-08-31T06:44:33.692Z,19488
2017-08-31T06:45:33.370Z,19424
2017-08-31T06:46:33.355Z,19616
2017-08-31T06:48:08.138Z,19904
2017-08-31T06:49:08.123Z,19008
2017-08-31T06:50:08.115Z,17856
2017-08-31T06:51:07.796Z,19552
2017-08-31T06:52:07.495Z,20192
2017-08-31T06:53:07.803Z,20544
2017-08-31T06:54:07.782Z,3760
2017-08-31T06:55:08.115Z,6228
2017-08-31T07:27:47.438Z,608.00
2017-08-31T08:16:08.134Z,13320.00
2017-08-31T08:17:08.125Z,2744.00
2017-08-31T08:18:10.338Z,29056.00
2017-08-31T08:19:08.107Z,28288.00
2017-08-31T08:20:08.117Z,27776.00
2017-08-31T08:21:08.096Z,26944.00
2017-08-31T08:22:08.081Z,26784.00
2017-08-31T08:23:08.075Z,27488.00
2017-08-31T08:24:08.068Z,29312.00
2017-08-31T08:25:08.058Z,31904.00
2017-08-31T08:26:08.050Z,32992.00
2017-08-31T08:27:08.042Z,33120.00
2017-08-31T08:28:08.034Z,33984.00
2017-08-31T08:29:08.024Z,29248.00
2017-08-31T08:30:08.018Z,27552.00
2017-08-31T08:31:08.010Z,27008.00
2017-08-31T08:32:07.999Z,27616.00
2017-08-31T08:33:07.991Z,28512.00
2017-08-31T08:34:07.982Z,29248.00
2017-08-31T08:35:07.977Z,29856.00
2017-08-31T08:36:07.966Z,30784.00
2017-08-31T08:37:07.957Z,31392.00
2017-08-31T08:38:07.950Z,30944.00
2017-08-31T08:39:07.941Z,30528.00
2017-08-31T08:40:07.932Z,30624.00
2017-08-31T08:41:07.924Z,31072.00
2017-08-31T08:42:07.918Z,31552.00
2017-08-31T08:43:07.908Z,31520.00
2017-08-31T08:44:07.903Z,31104.00
2017-08-31T08:45:07.916Z,31200.00
2017-08-31T08:46:07.883Z,31392.00
2017-08-31T08:47:07.878Z,31648.00
2017-08-31T08:48:07.870Z,32608.00
2017-08-31T08:49:07.858Z,32128.00
2017-08-31T08:50:07.852Z,32160.00
2017-08-31T08:51:07.842Z,33440.00
2017-08-31T08:52:07.835Z,34432.00
2017-08-31T08:53:07.826Z,35680.00
2017-08-31T08:54:07.821Z,36288.00
2017-08-31T08:55:07.812Z,36416.00
2017-08-31T08:56:07.803Z,40128.00
2017-08-31T08:57:07.795Z,39584.00
2017-08-31T08:58:07.787Z,39392.00
2017-08-31T08:59:07.776Z,36064.00
2017-08-31T09:00:07.771Z,37664.00
2017-08-31T09:01:07.759Z,40896.00
2017-08-31T09:02:07.752Z,46752.00
2017-08-31T09:03:07.746Z,41824.00
2017-08-31T09:04:07.737Z,47488.00
2017-08-31T09:05:07.727Z,45152.00
2017-08-31T09:06:07.719Z,38208.00
2017-08-31T09:07:07.713Z,36256.00
2017-08-31T09:08:07.705Z,35936.00
2017-08-31T09:09:07.697Z,35168.00
2017-08-31T09:10:07.686Z,35008.00
2017-08-31T09:11:07.680Z,35328.00
2017-08-31T09:12:07.673Z,35808.00
2017-08-31T09:13:07.667Z,36608.00
2017-08-31T09:14:07.657Z,39552.00
2017-08-31T09:15:07.647Z,41376.00
2017-08-31T09:16:07.639Z,46048.00
2017-08-31T09:17:07.633Z,43104.00
2017-08-31T09:18:07.622Z,42176.00
2017-08-31T09:19:07.616Z,51328.00
2017-08-31T09:20:07.607Z,55424.00
2017-08-31T09:21:07.598Z,52800.00
2017-08-31T09:22:07.592Z,49056.00
2017-08-31T09:23:07.582Z,46048.00
2017-08-31T09:24:07.575Z,42976.00
2017-08-31T09:25:07.566Z,41184.00
2017-08-31T09:26:07.561Z,40512.00
2017-08-31T09:27:07.552Z,40768.00
2017-08-31T09:28:07.546Z,43904.00
2017-08-31T09:29:07.538Z,44960.00
2017-08-31T09:30:07.531Z,50496.00
2017-08-31T09:31:07.551Z,50592.00
2017-08-31T09:32:07.514Z,48448.00
2017-08-31T09:33:07.507Z,48256.00
2017-08-31T09:34:07.502Z,54656.00
2017-08-31T09:35:07.494Z,54176.00
2017-08-31T09:36:07.488Z,53440.00
2017-08-31T09:37:07.481Z,53056.00
2017-08-31T09:38:07.472Z,49760.00
2017-08-31T09:39:07.463Z,46400.00
2017-08-31T09:40:07.461Z,45728.00
2017-08-31T09:41:07.453Z,45056.00
2017-08-31T09:42:07.443Z,45376.00
2017-08-31T09:43:07.439Z,46368.00
2017-08-31T09:44:07.442Z,53344.00
2017-08-31T09:45:07.421Z,47648.00
2017-08-31T09:46:07.416Z,46272.00
2017-08-31T09:47:07.412Z,44256.00
2017-08-31T09:48:07.405Z,35840.00
2017-08-31T09:49:07.397Z,39808.00
2017-08-31T09:50:07.388Z,39136.00
2017-08-31T09:51:07.384Z,37888.00
2017-08-31T09:52:07.374Z,39040.00
2017-08-31T09:53:07.368Z,43456.00
2017-08-31T09:54:07.360Z,49568.00
2017-08-31T09:55:07.356Z,54016.00
2017-08-31T09:56:07.350Z,59008.00
2017-08-31T09:57:07.343Z,58592.00
2017-08-31T09:58:07.333Z,57312.00
2017-08-31T09:59:07.329Z,56160.00
2017-08-31T10:00:07.323Z,57568.00
2017-08-31T10:01:07.319Z,52512.00
2017-08-31T10:02:07.309Z,55424.00
2017-08-31T10:03:07.300Z,55008.00
2017-08-31T10:04:07.296Z,48192.00
2017-08-31T10:05:07.286Z,48992.00
2017-08-31T10:06:07.278Z,50336.00
2017-08-31T10:07:07.272Z,57312.00
2017-08-31T10:08:07.267Z,47936.00
2017-08-31T10:09:07.259Z,48096.00
2017-08-31T10:10:07.250Z,51488.00
2017-08-31T10:11:07.243Z,53024.00
2017-08-31T10:12:07.238Z,72512.00
2017-08-31T10:13:07.229Z,58912.00
2017-08-31T10:14:07.225Z,107584.00
2017-08-31T10:15:07.216Z,106528.00
2017-08-31T10:16:07.213Z,87296.00
2017-08-31T10:17:07.204Z,93472.00
2017-08-31T10:18:07.194Z,112608.00
2017-08-31T10:19:07.188Z,101344.00
2017-08-31T10:20:07.196Z,91616.00
2017-08-31T10:21:07.175Z,79072.00
2017-08-31T10:22:07.170Z,84704.00
2017-08-31T10:23:07.161Z,50880.00
2017-08-31T10:24:07.159Z,54912.00
2017-08-31T10:25:07.152Z,64448.00
2017-08-31T10:26:07.143Z,60192.00
2017-08-31T10:27:07.136Z,53472.00
2017-08-31T10:28:07.130Z,43776.00
2017-08-31T10:29:07.124Z,38688.00
2017-08-31T10:30:07.119Z,39328.00
2017-08-31T10:31:07.109Z,42016.00
2017-08-31T10:32:07.109Z,40960.00
2017-08-31T10:33:07.098Z,56544.00
2017-08-31T10:34:07.092Z,75168.00
2017-08-31T10:35:07.086Z,69728.00
2017-08-31T10:36:07.076Z,52800.00
2017-08-31T10:37:07.069Z,53760.00
2017-08-31T10:38:07.061Z,62336.00
2017-08-31T10:39:07.056Z,63744.00
2017-08-31T10:40:07.050Z,56256.00
2017-08-31T10:41:07.043Z,56992.00
2017-08-31T10:42:07.036Z,63040.00
2017-08-31T10:43:07.035Z,56448.00
2017-08-31T10:44:07.025Z,44800.00
2017-08-31T10:45:07.016Z,44384.00
2017-08-31T10:46:07.011Z,49184.00
2017-08-31T10:47:07.007Z,34560.00
2017-08-31T10:48:06.998Z,32992.00
2017-08-31T10:49:06.992Z,39936.00
2017-08-31T10:50:06.984Z,42080.00
2017-08-31T10:51:06.978Z,35008.00
2017-08-31T10:52:06.972Z,26592.00
2017-08-31T10:53:06.964Z,24960.00
2017-08-31T10:54:06.954Z,23168.00
2017-08-31T10:55:06.951Z,23968.00
2017-08-31T10:56:06.942Z,32064.00
2017-08-31T10:57:06.934Z,22720.00
2017-08-31T10:58:06.929Z,14944.00
2017-08-31T10:59:06.919Z,12468.00
2017-08-31T11:00:06.913Z,12436.00
2017-08-31T11:01:06.905Z,14452.00
2017-08-31T11:02:06.899Z,14860.00
2017-08-31T11:03:06.890Z,14652.00
2017-08-31T11:04:06.882Z,15032.00
2017-08-31T11:05:06.877Z,13776.00
2017-08-31T11:06:06.869Z,15096.00
2017-08-31T11:07:06.865Z,17408.00
2017-08-31T11:08:06.853Z,28000.00
2017-08-31T11:09:06.848Z,29824.00
2017-08-31T11:10:06.832Z,23872.00
2017-08-31T11:11:06.827Z,16248.00
2017-08-31T11:12:06.816Z,20800.00
2017-08-31T11:13:06.807Z,20416.00
2017-08-31T11:14:06.799Z,15172.00
2017-08-31T11:15:06.793Z,11548.00
2017-08-31T11:16:06.785Z,12436.00
2017-08-31T11:17:06.780Z,13888.00
2017-08-31T11:18:06.767Z,14480.00
2017-08-31T11:19:06.758Z,13088.00
2017-08-31T11:20:06.749Z,13592.00
2017-08-31T11:21:06.741Z,11224.00
2017-08-31T11:22:06.736Z,10180.00
2017-08-31T11:23:06.732Z,7216.00
2017-08-31T11:24:06.715Z,9892.00
2017-08-31T11:25:06.704Z,18720.00
2017-08-31T11:26:06.694Z,23424.00
2017-08-31T11:27:06.739Z,22144.00
2017-08-31T11:28:06.739Z,19264.00
2017-08-31T11:29:06.781Z,21376.00
2017-08-31T11:30:06.781Z,11540.00
2017-08-31T11:31:06.743Z,13004.00
2017-08-31T11:32:06.733Z,12652.00
2017-08-31T11:33:06.729Z,10260.00
2017-08-31T11:34:06.847Z,12504.00
2017-08-31T11:35:06.748Z,14500.00
2017-08-31T11:36:06.799Z,13604.00
2017-08-31T11:37:06.656Z,11512.00
2017-08-31T11:38:06.576Z,9928.00
2017-08-31T11:39:06.569Z,7952.00
2017-08-31T11:40:06.566Z,8768.00
2017-08-31T11:41:06.558Z,9796.00
2017-08-31T11:42:06.537Z,10348.00
2017-08-31T11:43:06.528Z,8840.00
2017-08-31T11:44:06.519Z,8712.00
2017-08-31T11:45:06.509Z,10632.00
2017-08-31T11:46:06.497Z,17856.00
2017-08-31T11:47:06.485Z,21472.00
2017-08-31T11:48:06.476Z,25088.00
2017-08-31T11:49:06.465Z,26272.00
2017-08-31T11:50:06.453Z,20960.00
2017-08-31T11:51:06.445Z,13332.00
2017-08-31T11:52:06.437Z,11740.00
2017-08-31T11:53:06.421Z,8996.00
2017-08-31T11:54:06.413Z,7304.00
2017-08-31T11:55:06.403Z,8004.00
2017-08-31T11:56:06.389Z,8880.00
2017-08-31T11:57:06.378Z,8972.00
2017-08-31T11:58:06.367Z,8608.00
2017-08-31T11:59:06.358Z,6160.00
2017-08-31T12:00:06.346Z,5608.00
2017-08-31T12:01:06.334Z,7796.00
2017-08-31T12:02:06.323Z,9992.00
2017-08-31T12:03:06.314Z,10504.00
2017-08-31T12:04:06.304Z,9248.00
2017-08-31T12:05:06.291Z,9556.00
2017-08-31T12:06:06.278Z,9984.00
2017-08-31T12:07:06.271Z,10684.00
2017-08-31T12:08:06.261Z,11104.00
2017-08-31T12:09:06.250Z,9736.00
2017-08-31T12:10:06.238Z,10276.00
2017-08-31T12:11:06.227Z,10220.00
2017-08-31T12:12:06.215Z,9576.00
2017-08-31T12:13:06.202Z,10272.00
2017-08-31T12:14:06.192Z,11164.00
2017-08-31T12:15:06.181Z,11904.00
2017-08-31T12:16:06.171Z,11592.00
2017-08-31T12:17:06.157Z,10376.00
2017-08-31T12:18:06.147Z,9584.00
2017-08-31T12:19:06.137Z,10720.00
2017-08-31T12:20:06.129Z,12856.00
2017-08-31T12:21:06.119Z,10532.00
2017-08-31T12:22:06.103Z,9876.00
2017-08-31T12:23:06.095Z,9600.00
2017-08-31T12:24:06.084Z,9760.00
2017-08-31T12:25:06.070Z,11372.00
2017-08-31T12:26:06.059Z,10840.00
2017-08-31T12:27:06.048Z,9368.00
2017-08-31T12:28:06.038Z,9420.00
2017-08-31T12:29:06.027Z,8912.00
2017-08-31T12:30:06.015Z,7744.00
2017-08-31T12:31:06.003Z,6636.00
2017-08-31T12:32:05.994Z,7532.00
2017-08-31T12:33:05.978Z,10164.00
2017-08-31T12:34:05.967Z,11068.00
2017-08-31T12:35:05.956Z,13352.00
2017-08-31T12:36:05.947Z,20416.00
2017-08-31T12:37:05.932Z,21888.00
2017-08-31T12:38:05.921Z,19424.00
2017-08-31T12:39:05.910Z,32320.00
2017-08-31T12:40:05.901Z,29920.00
2017-08-31T12:41:05.887Z,29312.00
2017-08-31T12:42:05.877Z,33056.00
2017-08-31T12:43:05.865Z,31040.00
2017-08-31T12:44:05.856Z,21120.00
2017-08-31T12:45:05.843Z,24768.00
2017-08-31T12:46:05.836Z,21024.00
2017-08-31T12:47:05.824Z,16260.00
2017-08-31T12:48:05.810Z,12832.00
2017-08-31T12:49:05.799Z,12472.00
2017-08-31T12:50:05.788Z,15556.00
2017-08-31T12:51:05.780Z,23904.00
2017-08-31T12:52:05.768Z,14444.00
2017-08-31T12:53:05.756Z,12312.00
2017-08-31T12:54:05.748Z,20416.00
2017-08-31T12:55:05.732Z,22240.00
2017-08-31T12:56:05.720Z,18848.00
2017-08-31T12:57:05.709Z,26720.00
2017-08-31T12:58:05.698Z,20736.00
2017-08-31T12:59:05.690Z,14484.00
2017-08-31T13:00:05.678Z,14840.00
2017-08-31T13:01:05.665Z,15080.00
2017-08-31T13:02:05.657Z,17680.00
2017-08-31T13:03:05.648Z,17436.00
2017-08-31T13:04:05.637Z,19584.00
2017-08-31T13:05:05.623Z,17592.00
2017-08-31T13:06:05.613Z,20736.00
2017-08-31T13:07:05.606Z,20576.00
2017-08-31T13:08:05.593Z,30784.00
2017-08-31T13:09:05.581Z,33408.00
2017-08-31T13:10:05.570Z,49728.00
2017-08-31T13:11:05.561Z,53568.00
2017-08-31T13:12:05.553Z,49024.00
2017-08-31T13:13:05.542Z,38784.00
2017-08-31T13:14:05.533Z,41728.00
2017-08-31T13:15:05.524Z,40960.00
2017-08-31T13:16:05.515Z,42048.00
2017-08-31T13:17:05.503Z,47360.00
2017-08-31T13:18:05.493Z,47680.00
2017-08-31T13:19:05.481Z,35904.00
2017-08-31T13:20:05.472Z,34816.00
2017-08-31T13:21:05.461Z,25440.00
2017-08-31T13:22:05.452Z,25664.00
2017-08-31T13:23:05.450Z,30592.00
2017-08-31T13:24:05.434Z,28640.00
2017-08-31T13:25:05.427Z,32096.00
2017-08-31T13:26:05.412Z,30272.00
2017-08-31T13:27:05.403Z,35296.00
2017-08-31T13:28:05.393Z,41952.00
2017-08-31T13:29:05.381Z,41088.00
2017-08-31T13:30:05.372Z,27584.00
2017-08-31T13:31:05.367Z,24608.00
2017-08-31T13:32:05.355Z,21728.00
2017-08-31T13:33:05.343Z,17920.00
2017-08-31T13:34:05.335Z,18432.00
2017-08-31T13:35:05.324Z,23840.00
2017-08-31T13:36:05.314Z,19392.00
2017-08-31T13:37:05.307Z,18848.00
2017-08-31T13:38:05.297Z,15328.00
2017-08-31T13:39:05.288Z,13064.00
2017-08-31T13:40:05.279Z,9868.00
2017-08-31T13:41:05.266Z,12108.00
2017-08-31T13:42:05.256Z,13456.00
2017-08-31T13:43:05.250Z,10808.00
2017-08-31T13:44:05.239Z,9620.00
2017-08-31T13:45:05.229Z,9384.00
2017-08-31T13:46:05.222Z,10176.00
2017-08-31T13:47:05.211Z,9620.00
2017-08-31T13:48:05.203Z,7596.00
2017-08-31T13:49:05.189Z,6772.00
2017-08-31T13:50:05.182Z,6964.00
2017-08-31T13:51:05.169Z,6816.00
2017-08-31T13:52:05.159Z,7020.00
2017-08-31T13:53:05.152Z,6484.00
2017-08-31T13:54:05.136Z,6156.00
2017-08-31T13:55:05.125Z,6620.00
2017-08-31T13:56:05.113Z,6260.00
2017-08-31T13:57:05.103Z,5248.00
2017-08-31T13:58:05.091Z,5044.00
2017-08-31T13:59:05.080Z,5096.00
2017-08-31T14:00:05.066Z,6252.00
2017-08-31T14:01:05.056Z,6688.00
2017-08-31T14:02:05.045Z,5344.00
2017-08-31T14:03:05.029Z,5000.00
2017-08-31T14:04:05.020Z,5516.00
2017-08-31T14:05:05.005Z,6216.00
2017-08-31T14:06:05.001Z,6652.00
2017-08-31T14:07:04.981Z,7172.00
2017-08-31T14:08:04.972Z,8828.00
2017-08-31T14:09:04.958Z,8244.00
2017-08-31T14:10:04.946Z,7688.00
2017-08-31T14:11:04.933Z,5508.00
2017-08-31T14:12:04.921Z,4656.00
2017-08-31T14:13:04.908Z,4584.00
2017-08-31T14:14:04.893Z,5068.00
2017-08-31T14:15:04.883Z,6344.00